sensor_id;sensor_type;location;lat;lon;timestamp;P1;durP1;ratioP1;P2;durP2;ratioP2
24008;SDS011;12217;50.792;4.372;2023-01-05T00:02:16;28.10;;;4.90;;
24008;SDS011;12217;50.792;4.372;2023-01-05T00:04:42;35.22;;;4.90;;
24008;SDS011;12217;50.792;4.372;2023-01-05T00:07:09;36.63;;;6.68;;
24008;SDS011;12217;50.792;4.372;2023-01-05T00:09:35;29.02;;;4.78;;
24008;SDS011;12217;50.792;4.372;2023-01-05T00:12:02;27.65;;;5.50;;
24008;SDS011;12217;50.792;4.372;2023-01-05T00:14:47;27.77;;;4.43;;
24008;SDS011;12217;50.792;4.372;2023-01-05T00:17:51;30.38;;;4.70;;
24008;SDS011;12217;50.792;4.372;2023-01-05T00:20:34;29.02;;;4.85;;
24008;SDS011;12217;50.792;4.372;2023-01-05T00:23:19;22.77;;;4.78;;
24008;SDS011;12217;50.792;4.372;2023-01-05T00:25:45;34.22;;;5.60;;
24008;SDS011;12217;50.792;4.372;2023-01-05T00:28:10;27.73;;;5.03;;
24008;SDS011;12217;50.792;4.372;2023-01-05T00:30:41;30.20;;;5.40;;
24008;SDS011;12217;50.792;4.372;2023-01-05T00:33:09;31.02;;;5.78;;
24008;SDS011;12217;50.792;4.372;2023-01-05T00:35:35;34.47;;;5.65;;
24008;SDS011;12217;50.792;4.372;2023-01-05T00:38:02;32.17;;;6.03;;
24008;SDS011;12217;50.792;4.372;2023-01-05T00:40:28;28.92;;;5.32;;
24008;SDS011;12217;50.792;4.372;2023-01-05T00:42:54;36.75;;;5.25;;
24008;SDS011;12217;50.792;4.372;2023-01-05T00:45:20;25.15;;;4.45;;
24008;SDS011;12217;50.792;4.372;2023-01-05T00:47:46;32.35;;;5.40;;
24008;SDS011;12217;50.792;4.372;2023-01-05T00:50:13;32.17;;;5.53;;
24008;SDS011;12217;50.792;4.372;2023-01-05T00:52:39;32.83;;;5.60;;
24008;SDS011;12217;50.792;4.372;2023-01-05T00:55:05;32.85;;;5.50;;
24008;SDS011;12217;50.792;4.372;2023-01-05T00:57:31;32.38;;;5.30;;
24008;SDS011;12217;50.792;4.372;2023-01-05T00:59:57;26.65;;;6.00;;
24008;SDS011;12217;50.792;4.372;2023-01-05T01:02:23;34.80;;;5.68;;
24008;SDS011;12217;50.792;4.372;2023-01-05T01:04:48;31.90;;;5.30;;
24008;SDS011;12217;50.792;4.372;2023-01-05T01:07:14;33.50;;;5.07;;
24008;SDS011;12217;50.792;4.372;2023-01-05T01:09:39;29.90;;;5.30;;
24008;SDS011;12217;50.792;4.372;2023-01-05T01:12:05;36.35;;;5.95;;
24008;SDS011;12217;50.792;4.372;2023-01-05T01:14:31;28.00;;;4.90;;
24008;SDS011;12217;50.792;4.372;2023-01-05T01:16:57;34.65;;;5.50;;
24008;SDS011;12217;50.792;4.372;2023-01-05T01:19:23;32.08;;;5.55;;
24008;SDS011;12217;50.792;4.372;2023-01-05T01:21:49;37.13;;;5.95;;
24008;SDS011;12217;50.792;4.372;2023-01-05T01:24:17;36.63;;;5.70;;
24008;SDS011;12217;50.792;4.372;2023-01-05T01:26:44;38.38;;;5.68;;
24008;SDS011;12217;50.792;4.372;2023-01-05T01:29:10;31.92;;;5.60;;
24008;SDS011;12217;50.792;4.372;2023-01-05T01:31:36;33.80;;;5.68;;
24008;SDS011;12217;50.792;4.372;2023-01-05T01:34:01;33.95;;;5.40;;
24008;SDS011;12217;50.792;4.372;2023-01-05T01:36:28;30.10;;;6.32;;
24008;SDS011;12217;50.792;4.372;2023-01-05T01:38:53;35.63;;;6.38;;
24008;SDS011;12217;50.792;4.372;2023-01-05T01:41:19;31.17;;;5.43;;
24008;SDS011;12217;50.792;4.372;2023-01-05T01:43:48;35.50;;;5.85;;
24008;SDS011;12217;50.792;4.372;2023-01-05T01:46:16;34.13;;;5.63;;
24008;SDS011;12217;50.792;4.372;2023-01-05T01:48:47;36.60;;;5.55;;
24008;SDS011;12217;50.792;4.372;2023-01-05T01:51:27;28.90;;;5.97;;
24008;SDS011;12217;50.792;4.372;2023-01-05T01:53:57;36.88;;;6.05;;
24008;SDS011;12217;50.792;4.372;2023-01-05T01:56:26;32.30;;;6.53;;
24008;SDS011;12217;50.792;4.372;2023-01-05T01:58:56;43.70;;;6.73;;
24008;SDS011;12217;50.792;4.372;2023-01-05T02:01:22;39.55;;;6.35;;
24008;SDS011;12217;50.792;4.372;2023-01-05T02:03:47;32.50;;;5.88;;
24008;SDS011;12217;50.792;4.372;2023-01-05T02:06:13;35.25;;;5.70;;
24008;SDS011;12217;50.792;4.372;2023-01-05T02:08:39;28.35;;;5.28;;
24008;SDS011;12217;50.792;4.372;2023-01-05T02:33:05;31.30;;;5.47;;
24008;SDS011;12217;50.792;4.372;2023-01-05T02:35:52;33.60;;;5.93;;
24008;SDS011;12217;50.792;4.372;2023-01-05T02:41:05;34.35;;;6.07;;
24008;SDS011;12217;50.792;4.372;2023-01-05T02:43:37;31.92;;;5.68;;
24008;SDS011;12217;50.792;4.372;2023-01-05T02:46:02;30.45;;;5.53;;
24008;SDS011;12217;50.792;4.372;2023-01-05T02:48:28;33.92;;;5.68;;
24008;SDS011;12217;50.792;4.372;2023-01-05T02:50:59;35.35;;;5.82;;
24008;SDS011;12217;50.792;4.372;2023-01-05T02:53:32;28.35;;;5.25;;
24008;SDS011;12217;50.792;4.372;2023-01-05T02:56:12;35.17;;;5.80;;
24008;SDS011;12217;50.792;4.372;2023-01-05T02:58:43;38.35;;;6.57;;
24008;SDS011;12217;50.792;4.372;2023-01-05T03:01:31;30.23;;;6.53;;
24008;SDS011;12217;50.792;4.372;2023-01-05T03:04:07;31.30;;;5.55;;
24008;SDS011;12217;50.792;4.372;2023-01-05T03:06:45;37.55;;;6.07;;
24008;SDS011;12217;50.792;4.372;2023-01-05T03:09:20;31.60;;;5.90;;
24008;SDS011;12217;50.792;4.372;2023-01-05T03:15:04;31.58;;;5.45;;
24008;SDS011;12217;50.792;4.372;2023-01-05T03:17:42;39.63;;;6.15;;
24008;SDS011;12217;50.792;4.372;2023-01-05T03:20:11;31.27;;;5.68;;
24008;SDS011;12217;50.792;4.372;2023-01-05T03:22:39;33.13;;;5.72;;
24008;SDS011;12217;50.792;4.372;2023-01-05T03:25:25;38.40;;;5.95;;
24008;SDS011;12217;50.792;4.372;2023-01-05T03:28:16;37.75;;;5.97;;
24008;SDS011;12217;50.792;4.372;2023-01-05T03:31:05;38.83;;;6.57;;
24008;SDS011;12217;50.792;4.372;2023-01-05T03:34:03;39.65;;;5.65;;
24008;SDS011;12217;50.792;4.372;2023-01-05T03:37:06;38.17;;;5.65;;
24008;SDS011;12217;50.792;4.372;2023-01-05T03:39:35;35.47;;;5.60;;
24008;SDS011;12217;50.792;4.372;2023-01-05T03:42:06;41.05;;;5.97;;
24008;SDS011;12217;50.792;4.372;2023-01-05T03:44:54;35.38;;;5.45;;
24008;SDS011;12217;50.792;4.372;2023-01-05T03:47:18;26.77;;;5.45;;
24008;SDS011;12217;50.792;4.372;2023-01-05T03:49:44;33.28;;;6.45;;
24008;SDS011;12217;50.792;4.372;2023-01-05T03:52:09;35.38;;;5.90;;
24008;SDS011;12217;50.792;4.372;2023-01-05T03:54:35;37.63;;;6.40;;
24008;SDS011;12217;50.792;4.372;2023-01-05T03:57:01;35.72;;;6.05;;
24008;SDS011;12217;50.792;4.372;2023-01-05T03:59:26;36.92;;;5.93;;
24008;SDS011;12217;50.792;4.372;2023-01-05T04:01:52;37.30;;;6.00;;
24008;SDS011;12217;50.792;4.372;2023-01-05T04:04:17;34.92;;;6.07;;
24008;SDS011;12217;50.792;4.372;2023-01-05T04:06:43;40.13;;;5.90;;
24008;SDS011;12217;50.792;4.372;2023-01-05T04:09:09;31.65;;;5.45;;
24008;SDS011;12217;50.792;4.372;2023-01-05T04:11:34;34.50;;;5.75;;
24008;SDS011;12217;50.792;4.372;2023-01-05T04:14:00;33.40;;;6.68;;
24008;SDS011;12217;50.792;4.372;2023-01-05T04:16:25;38.58;;;5.50;;
24008;SDS011;12217;50.792;4.372;2023-01-05T04:18:52;43.13;;;6.20;;
24008;SDS011;12217;50.792;4.372;2023-01-05T04:21:18;35.22;;;6.07;;
24008;SDS011;12217;50.792;4.372;2023-01-05T04:23:43;37.15;;;5.88;;
24008;SDS011;12217;50.792;4.372;2023-01-05T04:26:09;37.17;;;5.78;;
24008;SDS011;12217;50.792;4.372;2023-01-05T04:28:35;41.90;;;6.43;;
24008;SDS011;12217;50.792;4.372;2023-01-05T04:31:01;35.78;;;6.05;;
24008;SDS011;12217;50.792;4.372;2023-01-05T04:33:27;42.55;;;5.97;;
24008;SDS011;12217;50.792;4.372;2023-01-05T04:35:52;31.27;;;5.97;;
24008;SDS011;12217;50.792;4.372;2023-01-05T04:38:18;31.83;;;5.60;;
24008;SDS011;12217;50.792;4.372;2023-01-05T04:40:50;35.15;;;5.75;;
24008;SDS011;12217;50.792;4.372;2023-01-05T04:43:16;41.42;;;6.85;;
24008;SDS011;12217;50.792;4.372;2023-01-05T04:45:46;32.83;;;5.75;;
24008;SDS011;12217;50.792;4.372;2023-01-05T04:48:12;41.60;;;6.63;;
24008;SDS011;12217;50.792;4.372;2023-01-05T04:50:38;40.42;;;6.38;;
24008;SDS011;12217;50.792;4.372;2023-01-05T04:53:04;33.55;;;5.90;;
24008;SDS011;12217;50.792;4.372;2023-01-05T04:55:29;41.58;;;6.15;;
24008;SDS011;12217;50.792;4.372;2023-01-05T04:57:55;40.15;;;5.70;;
24008;SDS011;12217;50.792;4.372;2023-01-05T05:00:21;30.60;;;5.57;;
24008;SDS011;12217;50.792;4.372;2023-01-05T05:02:46;34.95;;;7.10;;
24008;SDS011;12217;50.792;4.372;2023-01-05T05:05:12;39.90;;;5.97;;
24008;SDS011;12217;50.792;4.372;2023-01-05T05:07:37;38.88;;;6.13;;
24008;SDS011;12217;50.792;4.372;2023-01-05T05:10:03;39.50;;;5.65;;
24008;SDS011;12217;50.792;4.372;2023-01-05T05:12:29;35.22;;;5.38;;
24008;SDS011;12217;50.792;4.372;2023-01-05T05:14:55;34.17;;;6.25;;
24008;SDS011;12217;50.792;4.372;2023-01-05T05:17:20;40.92;;;6.35;;
24008;SDS011;12217;50.792;4.372;2023-01-05T05:19:46;41.20;;;6.35;;
24008;SDS011;12217;50.792;4.372;2023-01-05T05:22:12;38.33;;;7.25;;
24008;SDS011;12217;50.792;4.372;2023-01-05T05:24:37;39.38;;;6.13;;
24008;SDS011;12217;50.792;4.372;2023-01-05T05:27:03;44.90;;;6.50;;
24008;SDS011;12217;50.792;4.372;2023-01-05T05:29:28;49.97;;;6.57;;
24008;SDS011;12217;50.792;4.372;2023-01-05T05:31:54;37.17;;;5.72;;
24008;SDS011;12217;50.792;4.372;2023-01-05T05:34:20;40.17;;;6.18;;
24008;SDS011;12217;50.792;4.372;2023-01-05T05:36:45;40.78;;;7.13;;
24008;SDS011;12217;50.792;4.372;2023-01-05T05:39:11;34.85;;;6.20;;
24008;SDS011;12217;50.792;4.372;2023-01-05T05:41:38;44.33;;;6.88;;
24008;SDS011;12217;50.792;4.372;2023-01-05T05:44:03;35.33;;;6.35;;
24008;SDS011;12217;50.792;4.372;2023-01-05T05:46:29;40.15;;;5.85;;
24008;SDS011;12217;50.792;4.372;2023-01-05T05:48:55;36.92;;;6.55;;
24008;SDS011;12217;50.792;4.372;2023-01-05T05:51:22;42.00;;;6.75;;
24008;SDS011;12217;50.792;4.372;2023-01-05T05:53:48;38.78;;;7.10;;
24008;SDS011;12217;50.792;4.372;2023-01-05T05:56:14;44.72;;;6.93;;
24008;SDS011;12217;50.792;4.372;2023-01-05T05:58:41;38.33;;;7.00;;
24008;SDS011;12217;50.792;4.372;2023-01-05T06:01:06;41.33;;;6.35;;
24008;SDS011;12217;50.792;4.372;2023-01-05T06:03:32;40.78;;;6.28;;
24008;SDS011;12217;50.792;4.372;2023-01-05T06:05:58;46.75;;;7.15;;
24008;SDS011;12217;50.792;4.372;2023-01-05T06:08:24;36.72;;;7.38;;
24008;SDS011;12217;50.792;4.372;2023-01-05T06:10:51;39.35;;;6.53;;
24008;SDS011;12217;50.792;4.372;2023-01-05T06:13:16;40.25;;;6.70;;
24008;SDS011;12217;50.792;4.372;2023-01-05T06:15:42;38.45;;;6.43;;
24008;SDS011;12217;50.792;4.372;2023-01-05T06:18:08;45.45;;;7.00;;
24008;SDS011;12217;50.792;4.372;2023-01-05T06:20:34;43.78;;;6.28;;
24008;SDS011;12217;50.792;4.372;2023-01-05T06:23:00;34.10;;;5.78;;
24008;SDS011;12217;50.792;4.372;2023-01-05T06:25:26;36.22;;;6.80;;
24008;SDS011;12217;50.792;4.372;2023-01-05T06:27:51;39.75;;;6.20;;
24008;SDS011;12217;50.792;4.372;2023-01-05T06:30:17;34.08;;;5.82;;
24008;SDS011;12217;50.792;4.372;2023-01-05T06:32:43;35.90;;;6.10;;
24008;SDS011;12217;50.792;4.372;2023-01-05T06:35:08;45.40;;;6.85;;
24008;SDS011;12217;50.792;4.372;2023-01-05T06:37:34;36.63;;;6.35;;
24008;SDS011;12217;50.792;4.372;2023-01-05T06:39:59;48.28;;;7.68;;
24008;SDS011;12217;50.792;4.372;2023-01-05T06:42:25;35.05;;;6.03;;
24008;SDS011;12217;50.792;4.372;2023-01-05T06:44:51;37.72;;;6.68;;
24008;SDS011;12217;50.792;4.372;2023-01-05T06:47:17;41.10;;;6.80;;
24008;SDS011;12217;50.792;4.372;2023-01-05T06:49:43;42.72;;;5.90;;
24008;SDS011;12217;50.792;4.372;2023-01-05T06:52:08;38.88;;;6.45;;
24008;SDS011;12217;50.792;4.372;2023-01-05T06:54:34;44.67;;;6.32;;
24008;SDS011;12217;50.792;4.372;2023-01-05T06:56:59;41.80;;;6.32;;
24008;SDS011;12217;50.792;4.372;2023-01-05T06:59:25;45.53;;;6.78;;
24008;SDS011;12217;50.792;4.372;2023-01-05T07:01:51;43.50;;;7.13;;
24008;SDS011;12217;50.792;4.372;2023-01-05T07:04:16;37.78;;;6.55;;
24008;SDS011;12217;50.792;4.372;2023-01-05T07:06:42;36.42;;;6.15;;
24008;SDS011;12217;50.792;4.372;2023-01-05T07:09:08;39.63;;;6.93;;
24008;SDS011;12217;50.792;4.372;2023-01-05T07:11:33;43.65;;;6.78;;
24008;SDS011;12217;50.792;4.372;2023-01-05T07:13:59;45.45;;;6.32;;
24008;SDS011;12217;50.792;4.372;2023-01-05T07:16:24;38.47;;;5.53;;
24008;SDS011;12217;50.792;4.372;2023-01-05T07:18:50;40.58;;;6.82;;
24008;SDS011;12217;50.792;4.372;2023-01-05T07:21:15;34.88;;;5.72;;
24008;SDS011;12217;50.792;4.372;2023-01-05T07:23:41;37.53;;;6.55;;
24008;SDS011;12217;50.792;4.372;2023-01-05T07:26:07;46.55;;;6.80;;
24008;SDS011;12217;50.792;4.372;2023-01-05T07:28:34;40.20;;;6.35;;
24008;SDS011;12217;50.792;4.372;2023-01-05T07:31:00;43.83;;;6.18;;
24008;SDS011;12217;50.792;4.372;2023-01-05T07:33:26;35.35;;;6.55;;
24008;SDS011;12217;50.792;4.372;2023-01-05T07:35:51;41.72;;;6.82;;
24008;SDS011;12217;50.792;4.372;2023-01-05T07:38:17;36.88;;;6.15;;
24008;SDS011;12217;50.792;4.372;2023-01-05T07:40:43;43.70;;;7.20;;
24008;SDS011;12217;50.792;4.372;2023-01-05T07:43:08;38.85;;;6.65;;
24008;SDS011;12217;50.792;4.372;2023-01-05T07:45:34;42.80;;;7.20;;
24008;SDS011;12217;50.792;4.372;2023-01-05T07:48:00;44.08;;;7.47;;
24008;SDS011;12217;50.792;4.372;2023-01-05T07:50:27;41.90;;;6.57;;
24008;SDS011;12217;50.792;4.372;2023-01-05T07:52:53;41.28;;;6.88;;
24008;SDS011;12217;50.792;4.372;2023-01-05T07:55:18;34.85;;;6.05;;
24008;SDS011;12217;50.792;4.372;2023-01-05T07:57:44;46.20;;;6.30;;
24008;SDS011;12217;50.792;4.372;2023-01-05T08:00:11;32.58;;;6.20;;
24008;SDS011;12217;50.792;4.372;2023-01-05T08:02:38;42.25;;;7.60;;
24008;SDS011;12217;50.792;4.372;2023-01-05T08:05:05;39.92;;;6.53;;
24008;SDS011;12217;50.792;4.372;2023-01-05T08:07:31;35.60;;;6.35;;
24008;SDS011;12217;50.792;4.372;2023-01-05T08:09:57;41.75;;;6.57;;
24008;SDS011;12217;50.792;4.372;2023-01-05T08:12:41;39.42;;;6.75;;
24008;SDS011;12217;50.792;4.372;2023-01-05T08:15:25;45.33;;;7.28;;
24008;SDS011;12217;50.792;4.372;2023-01-05T08:17:50;35.17;;;6.60;;
24008;SDS011;12217;50.792;4.372;2023-01-05T08:20:16;48.67;;;7.80;;
24008;SDS011;12217;50.792;4.372;2023-01-05T08:22:42;58.42;;;7.95;;
24008;SDS011;12217;50.792;4.372;2023-01-05T08:25:07;39.63;;;6.43;;
24008;SDS011;12217;50.792;4.372;2023-01-05T08:27:33;42.35;;;5.72;;
24008;SDS011;12217;50.792;4.372;2023-01-05T08:29:59;43.40;;;7.43;;
24008;SDS011;12217;50.792;4.372;2023-01-05T08:32:25;40.70;;;6.72;;
24008;SDS011;12217;50.792;4.372;2023-01-05T08:34:50;39.42;;;6.68;;
24008;SDS011;12217;50.792;4.372;2023-01-05T08:37:16;44.15;;;7.32;;
24008;SDS011;12217;50.792;4.372;2023-01-05T08:39:43;39.90;;;7.03;;
24008;SDS011;12217;50.792;4.372;2023-01-05T08:42:08;37.25;;;6.53;;
24008;SDS011;12217;50.792;4.372;2023-01-05T08:44:34;43.45;;;7.30;;
24008;SDS011;12217;50.792;4.372;2023-01-05T08:47:00;44.22;;;7.03;;
24008;SDS011;12217;50.792;4.372;2023-01-05T08:49:26;42.55;;;6.30;;
24008;SDS011;12217;50.792;4.372;2023-01-05T08:51:51;44.40;;;7.38;;
24008;SDS011;12217;50.792;4.372;2023-01-05T08:54:17;46.78;;;6.65;;
24008;SDS011;12217;50.792;4.372;2023-01-05T08:56:43;38.83;;;6.38;;
24008;SDS011;12217;50.792;4.372;2023-01-05T08:59:11;43.47;;;5.50;;
24008;SDS011;12217;50.792;4.372;2023-01-05T09:01:38;36.80;;;6.47;;
24008;SDS011;12217;50.792;4.372;2023-01-05T09:04:04;34.30;;;6.10;;
24008;SDS011;12217;50.792;4.372;2023-01-05T09:06:29;37.65;;;6.43;;
24008;SDS011;12217;50.792;4.372;2023-01-05T09:08:55;38.10;;;5.90;;
24008;SDS011;12217;50.792;4.372;2023-01-05T09:11:21;39.75;;;6.18;;
24008;SDS011;12217;50.792;4.372;2023-01-05T09:13:54;47.40;;;12.82;;
24008;SDS011;12217;50.792;4.372;2023-01-05T09:16:21;43.60;;;6.50;;
24008;SDS011;12217;50.792;4.372;2023-01-05T09:18:49;37.17;;;6.53;;
24008;SDS011;12217;50.792;4.372;2023-01-05T09:21:16;31.17;;;6.13;;
24008;SDS011;12217;50.792;4.372;2023-01-05T09:23:42;37.53;;;5.68;;
24008;SDS011;12217;50.792;4.372;2023-01-05T09:26:10;34.42;;;6.40;;
24008;SDS011;12217;50.792;4.372;2023-01-05T09:28:37;31.75;;;5.60;;
24008;SDS011;12217;50.792;4.372;2023-01-05T09:31:10;38.65;;;6.03;;
24008;SDS011;12217;50.792;4.372;2023-01-05T09:33:38;34.50;;;5.78;;
24008;SDS011;12217;50.792;4.372;2023-01-05T09:36:04;35.13;;;6.25;;
24008;SDS011;12217;50.792;4.372;2023-01-05T09:38:30;39.72;;;6.00;;
24008;SDS011;12217;50.792;4.372;2023-01-05T09:41:02;34.08;;;6.28;;
24008;SDS011;12217;50.792;4.372;2023-01-05T09:43:39;37.20;;;5.55;;
24008;SDS011;12217;50.792;4.372;2023-01-05T09:46:09;31.98;;;5.97;;
24008;SDS011;12217;50.792;4.372;2023-01-05T09:48:40;32.63;;;6.57;;
24008;SDS011;12217;50.792;4.372;2023-01-05T09:51:08;38.15;;;5.78;;
24008;SDS011;12217;50.792;4.372;2023-01-05T09:53:34;35.83;;;5.82;;
24008;SDS011;12217;50.792;4.372;2023-01-05T09:56:00;38.15;;;6.85;;
24008;SDS011;12217;50.792;4.372;2023-01-05T09:58:40;31.25;;;6.15;;
24008;SDS011;12217;50.792;4.372;2023-01-05T10:01:12;32.05;;;5.55;;
24008;SDS011;12217;50.792;4.372;2023-01-05T10:04:03;28.63;;;5.85;;
24008;SDS011;12217;50.792;4.372;2023-01-05T10:06:29;31.52;;;4.90;;
24008;SDS011;12217;50.792;4.372;2023-01-05T10:08:59;38.10;;;6.97;;
24008;SDS011;12217;50.792;4.372;2023-01-05T10:14:12;33.30;;;5.82;;
24008;SDS011;12217;50.792;4.372;2023-01-05T10:16:42;28.75;;;5.60;;
24008;SDS011;12217;50.792;4.372;2023-01-05T10:19:12;31.45;;;5.35;;
24008;SDS011;12217;50.792;4.372;2023-01-05T10:24:34;31.58;;;5.30;;
24008;SDS011;12217;50.792;4.372;2023-01-05T10:29:53;33.30;;;5.60;;
24008;SDS011;12217;50.792;4.372;2023-01-05T10:36:26;31.42;;;5.70;;
24008;SDS011;12217;50.792;4.372;2023-01-05T10:46:56;24.75;;;5.03;;
24008;SDS011;12217;50.792;4.372;2023-01-05T10:49:29;27.42;;;5.03;;
24008;SDS011;12217;50.792;4.372;2023-01-05T10:51:56;34.17;;;6.13;;
24008;SDS011;12217;50.792;4.372;2023-01-05T10:55:09;32.00;;;5.63;;
24008;SDS011;12217;50.792;4.372;2023-01-05T10:59:58;35.80;;;6.40;;
24008;SDS011;12217;50.792;4.372;2023-01-05T11:02:29;34.88;;;6.40;;
24008;SDS011;12217;50.792;4.372;2023-01-05T11:07:52;38.60;;;5.90;;
24008;SDS011;12217;50.792;4.372;2023-01-05T11:10:27;26.30;;;5.90;;
24008;SDS011;12217;50.792;4.372;2023-01-05T11:13:00;37.25;;;6.50;;
24008;SDS011;12217;50.792;4.372;2023-01-05T11:15:27;32.38;;;6.68;;
24008;SDS011;12217;50.792;4.372;2023-01-05T11:17:56;35.33;;;7.18;;
24008;SDS011;12217;50.792;4.372;2023-01-05T11:20:22;34.30;;;6.57;;
24008;SDS011;12217;50.792;4.372;2023-01-05T11:22:48;40.95;;;6.72;;
24008;SDS011;12217;50.792;4.372;2023-01-05T11:25:30;35.92;;;6.60;;
24008;SDS011;12217;50.792;4.372;2023-01-05T11:28:13;31.83;;;5.93;;
24008;SDS011;12217;50.792;4.372;2023-01-05T11:30:44;50.67;;;8.52;;
24008;SDS011;12217;50.792;4.372;2023-01-05T11:33:25;38.83;;;7.03;;
24008;SDS011;12217;50.792;4.372;2023-01-05T11:35:54;40.03;;;7.32;;
24008;SDS011;12217;50.792;4.372;2023-01-05T11:38:22;39.40;;;6.88;;
24008;SDS011;12217;50.792;4.372;2023-01-05T11:40:50;41.10;;;7.00;;
24008;SDS011;12217;50.792;4.372;2023-01-05T11:43:16;34.45;;;7.10;;
24008;SDS011;12217;50.792;4.372;2023-01-05T11:45:52;49.35;;;16.17;;
24008;SDS011;12217;50.792;4.372;2023-01-05T11:48:21;40.53;;;7.13;;
24008;SDS011;12217;50.792;4.372;2023-01-05T11:50:52;38.75;;;7.47;;
24008;SDS011;12217;50.792;4.372;2023-01-05T11:53:41;39.50;;;6.85;;
24008;SDS011;12217;50.792;4.372;2023-01-05T11:56:21;45.20;;;6.63;;
24008;SDS011;12217;50.792;4.372;2023-01-05T11:58:49;37.33;;;6.60;;
24008;SDS011;12217;50.792;4.372;2023-01-05T12:18:17;37.05;;;7.97;;
24008;SDS011;12217;50.792;4.372;2023-01-05T12:20:56;40.63;;;7.15;;
24008;SDS011;12217;50.792;4.372;2023-01-05T12:26:03;38.85;;;7.93;;
24008;SDS011;12217;50.792;4.372;2023-01-05T12:44:00;42.03;;;7.50;;
24008;SDS011;12217;50.792;4.372;2023-01-05T12:49:04;42.15;;;7.57;;
24008;SDS011;12217;50.792;4.372;2023-01-05T12:52:09;50.63;;;15.88;;
24008;SDS011;12217;50.792;4.372;2023-01-05T12:54:52;34.20;;;6.78;;
24008;SDS011;12217;50.792;4.372;2023-01-05T13:02:36;37.70;;;13.60;;
24008;SDS011;12217;50.792;4.372;2023-01-05T13:08:03;108.57;;;50.10;;
24008;SDS011;12217;50.792;4.372;2023-01-05T13:13:27;33.20;;;5.90;;
24008;SDS011;12217;50.792;4.372;2023-01-05T13:16:14;26.50;;;5.95;;
24008;SDS011;12217;50.792;4.372;2023-01-05T13:18:59;25.48;;;6.05;;
24008;SDS011;12217;50.792;4.372;2023-01-05T13:21:29;35.40;;;14.43;;
24008;SDS011;12217;50.792;4.372;2023-01-05T13:23:57;27.60;;;7.97;;
24008;SDS011;12217;50.792;4.372;2023-01-05T13:26:27;27.95;;;5.60;;
24008;SDS011;12217;50.792;4.372;2023-01-05T13:28:54;27.70;;;14.10;;
24008;SDS011;12217;50.792;4.372;2023-01-05T13:31:24;26.20;;;5.72;;
24008;SDS011;12217;50.792;4.372;2023-01-05T13:36:41;19.73;;;4.57;;
24008;SDS011;12217;50.792;4.372;2023-01-05T13:39:39;15.20;;;5.45;;
24008;SDS011;12217;50.792;4.372;2023-01-05T13:50:55;9.93;;;4.10;;
24008;SDS011;12217;50.792;4.372;2023-01-05T13:53:29;13.23;;;4.30;;
24008;SDS011;12217;50.792;4.372;2023-01-05T13:56:01;17.50;;;5.00;;
24008;SDS011;12217;50.792;4.372;2023-01-05T13:58:35;12.57;;;3.97;;
24008;SDS011;12217;50.792;4.372;2023-01-05T14:04:05;11.52;;;6.10;;
24008;SDS011;12217;50.792;4.372;2023-01-05T14:06:45;12.63;;;5.78;;
24008;SDS011;12217;50.792;4.372;2023-01-05T14:09:18;10.70;;;4.07;;
24008;SDS011;12217;50.792;4.372;2023-01-05T14:20:31;12.90;;;5.15;;
24008;SDS011;12217;50.792;4.372;2023-01-05T14:25:53;13.77;;;5.43;;
24008;SDS011;12217;50.792;4.372;2023-01-05T14:38:54;10.57;;;5.50;;
24008;SDS011;12217;50.792;4.372;2023-01-05T14:41:22;10.45;;;5.05;;
24008;SDS011;12217;50.792;4.372;2023-01-05T14:43:54;14.75;;;5.47;;
24008;SDS011;12217;50.792;4.372;2023-01-05T14:46:22;14.93;;;6.07;;
24008;SDS011;12217;50.792;4.372;2023-01-05T14:49:03;10.52;;;5.03;;
24008;SDS011;12217;50.792;4.372;2023-01-05T14:51:34;10.75;;;4.80;;
24008;SDS011;12217;50.792;4.372;2023-01-05T14:54:03;16.33;;;5.40;;
24008;SDS011;12217;50.792;4.372;2023-01-05T14:56:30;13.68;;;5.22;;
24008;SDS011;12217;50.792;4.372;2023-01-05T14:59:08;10.52;;;4.78;;
24008;SDS011;12217;50.792;4.372;2023-01-05T15:02:00;9.77;;;4.55;;
24008;SDS011;12217;50.792;4.372;2023-01-05T15:04:38;11.80;;;4.97;;
24008;SDS011;12217;50.792;4.372;2023-01-05T15:23:59;10.23;;;4.95;;
24008;SDS011;12217;50.792;4.372;2023-01-05T15:26:54;10.13;;;5.45;;
24008;SDS011;12217;50.792;4.372;2023-01-05T15:32:25;8.98;;;5.03;;
24008;SDS011;12217;50.792;4.372;2023-01-05T15:37:33;8.98;;;6.07;;
24008;SDS011;12217;50.792;4.372;2023-01-05T15:39:59;9.93;;;6.38;;
24008;SDS011;12217;50.792;4.372;2023-01-05T15:42:38;11.73;;;6.35;;
24008;SDS011;12217;50.792;4.372;2023-01-05T15:45:06;11.18;;;6.40;;
24008;SDS011;12217;50.792;4.372;2023-01-05T15:47:40;10.23;;;6.50;;
24008;SDS011;12217;50.792;4.372;2023-01-05T15:50:06;10.10;;;7.15;;
24008;SDS011;12217;50.792;4.372;2023-01-05T15:52:42;11.00;;;7.13;;
24008;SDS011;12217;50.792;4.372;2023-01-05T15:55:18;8.57;;;7.40;;
24008;SDS011;12217;50.792;4.372;2023-01-05T15:57:54;9.93;;;6.97;;
24008;SDS011;12217;50.792;4.372;2023-01-05T16:00:27;9.77;;;7.13;;
24008;SDS011;12217;50.792;4.372;2023-01-05T16:02:59;8.43;;;6.40;;
24008;SDS011;12217;50.792;4.372;2023-01-05T16:05:26;7.22;;;6.35;;
24008;SDS011;12217;50.792;4.372;2023-01-05T16:07:54;7.15;;;5.63;;
24008;SDS011;12217;50.792;4.372;2023-01-05T16:10:23;9.25;;;7.22;;
24008;SDS011;12217;50.792;4.372;2023-01-05T16:13:08;8.02;;;6.80;;
24008;SDS011;12217;50.792;4.372;2023-01-05T16:15:34;6.10;;;5.50;;
24008;SDS011;12217;50.792;4.372;2023-01-05T16:18:02;8.05;;;6.50;;
24008;SDS011;12217;50.792;4.372;2023-01-05T16:20:30;9.07;;;8.15;;
24008;SDS011;12217;50.792;4.372;2023-01-05T16:25:31;8.40;;;7.18;;
24008;SDS011;12217;50.792;4.372;2023-01-05T16:28:02;8.10;;;7.30;;
24008;SDS011;12217;50.792;4.372;2023-01-05T16:30:38;7.45;;;6.75;;
24008;SDS011;12217;50.792;4.372;2023-01-05T16:33:18;9.57;;;7.75;;
24008;SDS011;12217;50.792;4.372;2023-01-05T16:36:09;9.75;;;8.75;;
24008;SDS011;12217;50.792;4.372;2023-01-05T16:38:45;9.93;;;9.00;;
24008;SDS011;12217;50.792;4.372;2023-01-05T16:44:10;9.07;;;8.18;;
24008;SDS011;12217;50.792;4.372;2023-01-05T16:46:39;9.32;;;8.32;;
24008;SDS011;12217;50.792;4.372;2023-01-05T16:52:07;8.65;;;7.57;;
24008;SDS011;12217;50.792;4.372;2023-01-05T16:54:43;7.72;;;6.93;;
24008;SDS011;12217;50.792;4.372;2023-01-05T16:59:54;6.53;;;5.93;;
24008;SDS011;12217;50.792;4.372;2023-01-05T17:02:42;8.77;;;6.40;;
24008;SDS011;12217;50.792;4.372;2023-01-05T17:05:14;7.57;;;5.93;;
24008;SDS011;12217;50.792;4.372;2023-01-05T17:07:41;7.40;;;6.30;;
24008;SDS011;12217;50.792;4.372;2023-01-05T17:10:13;8.98;;;6.20;;
24008;SDS011;12217;50.792;4.372;2023-01-05T17:13:02;8.85;;;7.00;;
24008;SDS011;12217;50.792;4.372;2023-01-05T17:15:31;7.85;;;7.10;;
24008;SDS011;12217;50.792;4.372;2023-01-05T17:17:59;8.25;;;7.47;;
24008;SDS011;12217;50.792;4.372;2023-01-05T17:20:30;9.07;;;8.18;;
24008;SDS011;12217;50.792;4.372;2023-01-05T17:23:02;10.27;;;8.48;;
24008;SDS011;12217;50.792;4.372;2023-01-05T17:25:28;14.93;;;9.38;;
24008;SDS011;12217;50.792;4.372;2023-01-05T17:27:57;12.32;;;10.32;;
24008;SDS011;12217;50.792;4.372;2023-01-05T17:30:23;11.63;;;10.50;;
24008;SDS011;12217;50.792;4.372;2023-01-05T17:32:49;12.15;;;9.73;;
24008;SDS011;12217;50.792;4.372;2023-01-05T17:35:14;12.52;;;11.23;;
24008;SDS011;12217;50.792;4.372;2023-01-05T17:37:40;11.48;;;9.88;;
24008;SDS011;12217;50.792;4.372;2023-01-05T17:40:08;10.32;;;9.25;;
24008;SDS011;12217;50.792;4.372;2023-01-05T17:42:40;9.23;;;8.23;;
24008;SDS011;12217;50.792;4.372;2023-01-05T17:45:07;9.40;;;8.10;;